createdAt,value
2019-01-17T00:01:00.825Z,98653.25
2019-01-17T00:04:11.697Z,98651.14
2019-01-17T00:07:09.140Z,98655.13
2019-01-17T00:10:05.391Z,98655.94
2019-01-17T00:12:49.311Z,98660.30
2019-01-17T00:15:28.325Z,98669.66
2019-01-17T00:18:14.127Z,98662.12
2019-01-17T00:21:12.017Z,98658.19
2019-01-17T00:24:21.058Z,98666.39
2019-01-17T00:27:00.896Z,98663.84
2019-01-17T00:29:55.698Z,98657.94
2019-01-17T00:33:00.550Z,98652.45
2019-01-17T00:35:45.674Z,98649.97
2019-01-17T00:38:35.485Z,98645.16
2019-01-17T00:41:20.882Z,98652.78
2019-01-17T00:44:08.968Z,98648.95
2019-01-17T00:46:49.414Z,98647.78
2019-01-17T00:49:33.515Z,98651.76
2019-01-17T00:52:21.899Z,98653.45
2019-01-17T00:55:00.619Z,98659.31
2019-01-17T00:57:43.619Z,98650.77
2019-01-17T01:00:39.529Z,98655.61
2019-01-17T01:03:20.916Z,98663.06
2019-01-17T01:06:01.378Z,98661.83
2019-01-17T01:08:52.158Z,98659.72
2019-01-17T01:11:39.920Z,98660.30
2019-01-17T01:14:19.089Z,98649.44
2019-01-17T01:17:20.805Z,98648.84
2019-01-17T01:20:29.834Z,98653.23
2019-01-17T01:23:20.026Z,98652.69
2019-01-17T01:25:59.444Z,98652.45
2019-01-17T01:28:56.722Z,98653.73
2019-01-17T01:31:35.245Z,98651.48
2019-01-17T01:34:21.740Z,98658.29
2019-01-17T01:37:15.618Z,98655.28
2019-01-17T01:40:02.942Z,98669.84
2019-01-17T01:42:58.044Z,98671.22
2019-01-17T01:45:49.429Z,98669.13
2019-01-17T01:48:38.546Z,98675.77
2019-01-17T01:51:31.486Z,98673.74
2019-01-17T01:54:22.045Z,98668.23
2019-01-17T01:56:57.195Z,98666.42
2019-01-17T01:59:32.565Z,98669.47
2019-01-17T02:02:06.481Z,98666.05
2019-01-17T02:04:40.354Z,98663.20
2019-01-17T02:07:13.915Z,98664.33
2019-01-17T02:09:48.163Z,98676.20
2019-01-17T02:12:21.932Z,98669.05
2019-01-17T02:14:55.447Z,98674.98
2019-01-17T02:17:29.024Z,98673.21
2019-01-17T02:20:04.667Z,98681.36
2019-01-17T02:22:38.016Z,98678.61
2019-01-17T02:25:11.971Z,98682.80
2019-01-17T02:27:44.776Z,98684.34
2019-01-17T02:30:17.335Z,98676.33
2019-01-17T02:32:50.157Z,98683.63
2019-01-17T02:35:23.767Z,98686.42
2019-01-17T02:37:57.899Z,98688.12
2019-01-17T02:40:30.680Z,98683.23
2019-01-17T02:43:04.424Z,98685.09
2019-01-17T02:45:37.776Z,98687.14
2019-01-17T02:48:14.506Z,98685.26
2019-01-17T02:50:47.416Z,98685.80
2019-01-17T02:53:23.205Z,98678.41
2019-01-17T02:55:56.058Z,98672.72
2019-01-17T02:58:30.280Z,98675.51
2019-01-17T03:01:04.205Z,98669.41
2019-01-17T03:03:40.138Z,98674.30
2019-01-17T03:06:15.034Z,98673.88
2019-01-17T03:08:48.297Z,98668.28
2019-01-17T03:11:24.252Z,98671.98
2019-01-17T03:13:57.869Z,98675.45
2019-01-17T03:16:31.157Z,98665.30
2019-01-17T03:19:04.612Z,98670.02
2019-01-17T03:21:38.421Z,98656.09
2019-01-17T03:24:11.497Z,98642.72
2019-01-17T03:26:44.906Z,98631.88
2019-01-17T03:29:17.649Z,98629.01
2019-01-17T03:31:51.514Z,98621.33
2019-01-17T03:34:25.195Z,98633.74
2019-01-17T03:36:58.817Z,98635.77
2019-01-17T03:39:32.877Z,98641.57
2019-01-17T03:42:07.037Z,98643.22
2019-01-17T03:44:39.796Z,98647.50
2019-01-17T03:47:13.076Z,98639.66
2019-01-17T03:49:45.819Z,98645.14
2019-01-17T03:52:18.746Z,98642.72
2019-01-17T03:54:53.995Z,98647.22
2019-01-17T03:57:27.076Z,98651.64
2019-01-17T03:59:59.896Z,98658.55
2019-01-17T04:02:33.237Z,98663.98
2019-01-17T04:05:07.491Z,98671.48
2019-01-17T04:07:40.360Z,98670.09
2019-01-17T04:10:15.152Z,98665.36
2019-01-17T04:12:47.974Z,98669.34
2019-01-17T04:15:20.782Z,98665.27
2019-01-17T04:17:54.703Z,98659.16
2019-01-17T04:20:27.522Z,98663.59
2019-01-17T04:23:00.296Z,98664.58
2019-01-17T04:25:33.495Z,98660.61
2019-01-17T04:28:06.281Z,98658.13
2019-01-17T04:30:39.952Z,98654.84
2019-01-17T04:33:13.293Z,98659.44
2019-01-17T04:35:46.363Z,98642.91
2019-01-17T04:38:19.823Z,98646.95
2019-01-17T04:40:53.047Z,98652.41
2019-01-17T04:43:27.136Z,98648.98
2019-01-17T04:45:59.902Z,98652.75
2019-01-17T04:48:34.060Z,98648.67
2019-01-17T04:51:07.122Z,98647.43
2019-01-17T04:53:46.234Z,98652.30
2019-01-17T04:56:19.422Z,98640.55
2019-01-17T04:58:52.483Z,98635.65
2019-01-17T05:01:25.646Z,98643.38
2019-01-17T05:03:58.645Z,98644.52
2019-01-17T05:06:31.663Z,98643.36
2019-01-17T05:09:07.733Z,98641.59
2019-01-17T05:11:40.659Z,98646.10
2019-01-17T05:14:13.690Z,98643.69
2019-01-17T05:16:46.615Z,98642.20
2019-01-17T05:19:19.688Z,98638.13
2019-01-17T05:21:52.781Z,98641.12
2019-01-17T05:24:27.308Z,98639.27
2019-01-17T05:27:01.553Z,98629.97
2019-01-17T05:29:36.512Z,98633.16
2019-01-17T05:32:09.857Z,98629.51
2019-01-17T05:34:42.967Z,98637.30
2019-01-17T05:37:16.396Z,98644.20
2019-01-17T05:39:49.327Z,98642.78
2019-01-17T05:42:22.624Z,98632.72
2019-01-17T05:44:56.247Z,98631.77
2019-01-17T05:47:29.137Z,98623.80
2019-01-17T05:50:03.195Z,98624.88
2019-01-17T05:52:36.716Z,98638.62
2019-01-17T05:55:10.265Z,98632.94
2019-01-17T05:57:43.433Z,98632.42
2019-01-17T06:00:20.839Z,98630.90
2019-01-17T06:02:53.766Z,98636.83
2019-01-17T06:05:27.101Z,98642.97
2019-01-17T06:08:01.752Z,98640.62
2019-01-17T06:10:34.824Z,98647.16
2019-01-17T06:13:08.300Z,98632.75
2019-01-17T06:15:44.249Z,98636.72
2019-01-17T06:18:17.461Z,98634.09
2019-01-17T06:20:50.457Z,98629.97
2019-01-17T06:23:23.901Z,98632.05
2019-01-17T06:25:56.820Z,98628.17
2019-01-17T06:28:29.659Z,98617.44
2019-01-17T06:31:04.517Z,98615.91
2019-01-17T06:33:38.413Z,98615.30
2019-01-17T06:36:12.244Z,98619.38
2019-01-17T06:38:45.257Z,98617.26
2019-01-17T06:41:19.274Z,98617.84
2019-01-17T06:43:55.702Z,98617.33
2019-01-17T06:46:28.801Z,98616.99
2019-01-17T06:49:03.725Z,98613.61
2019-01-17T06:51:36.718Z,98623.15
2019-01-17T06:54:09.690Z,98620.67
2019-01-17T06:56:42.759Z,98628.41
2019-01-17T06:59:16.096Z,98630.02
2019-01-17T07:01:49.580Z,98626.79
2019-01-17T07:04:22.469Z,98629.87
2019-01-17T07:06:55.504Z,98628.81
2019-01-17T07:09:29.468Z,98626.95
2019-01-17T07:12:03.222Z,98628.55
2019-01-17T07:14:36.077Z,98631.16
2019-01-17T07:17:09.049Z,98632.95
2019-01-17T07:19:42.435Z,98631.02
2019-01-17T07:22:15.521Z,98626.22
2019-01-17T07:24:49.454Z,98629.84
2019-01-17T07:27:23.785Z,98630.38
2019-01-17T07:29:56.702Z,98631.60
2019-01-17T07:32:29.663Z,98629.98
2019-01-17T07:35:03.681Z,98634.67
2019-01-17T07:37:37.716Z,98630.86
2019-01-17T07:40:12.080Z,98638.91
2019-01-17T07:42:45.209Z,98634.73
2019-01-17T07:45:47.530Z,98631.50
2019-01-17T07:48:22.237Z,98635.09
2019-01-17T07:50:56.158Z,98634.95
2019-01-17T07:53:29.248Z,98636.84
2019-01-17T07:56:05.912Z,98639.30
2019-01-17T07:58:40.359Z,98639.13
2019-01-17T08:01:15.080Z,98645.72
2019-01-17T08:03:49.422Z,98640.80
2019-01-17T08:06:22.364Z,98639.97
2019-01-17T08:08:56.072Z,98642.98
2019-01-17T08:11:30.179Z,98642.88
2019-01-17T08:14:03.848Z,98646.16
2019-01-17T08:16:38.654Z,98643.08
2019-01-17T08:19:13.201Z,98644.66
2019-01-17T08:21:47.620Z,98641.61
2019-01-17T08:24:23.071Z,98643.48
2019-01-17T08:26:56.013Z,98641.70
2019-01-17T08:29:29.058Z,98640.97
2019-01-17T08:32:03.375Z,98646.86
2019-01-17T08:34:36.518Z,98645.56
2019-01-17T08:37:09.649Z,98644.30
2019-01-17T08:39:43.582Z,98640.76
2019-01-17T08:42:20.771Z,98638.33
2019-01-17T08:44:55.683Z,98636.05
2019-01-17T08:47:29.919Z,98631.52
2019-01-17T08:50:03.776Z,98638.14
2019-01-17T08:52:37.731Z,98637.15
2019-01-17T08:55:13.976Z,98638.42
2019-01-17T08:57:47.837Z,98635.91
2019-01-17T09:00:24.149Z,98640.12
2019-01-17T09:02:59.160Z,98634.43
2019-01-17T09:05:33.902Z,98635.08
2019-01-17T09:08:12.811Z,98639.24
2019-01-17T09:10:47.131Z,98638.34
2019-01-17T09:13:20.764Z,98634.02
2019-01-17T09:15:55.876Z,98624.67
2019-01-17T09:18:30.098Z,98623.66
2019-01-17T09:21:03.422Z,98619.42
2019-01-17T09:23:38.389Z,98611.11
2019-01-17T09:26:13.247Z,98609.31
2019-01-17T09:28:46.891Z,98609.80
2019-01-17T09:31:20.478Z,98600.64
2019-01-17T09:33:55.898Z,98596.14
2019-01-17T09:36:29.794Z,98586.39
2019-01-17T09:39:08.558Z,98592.55
2019-01-17T09:41:43.555Z,98585.22
2019-01-17T09:44:16.707Z,98580.45
2019-01-17T09:46:52.057Z,98577.72
2019-01-17T09:49:29.208Z,98579.69
2019-01-17T09:52:05.108Z,98574.98
2019-01-17T09:54:40.484Z,98568.62
2019-01-17T09:57:14.526Z,98565.70
2019-01-17T09:59:50.428Z,98562.89
2019-01-17T10:02:24.081Z,98559.22
2019-01-17T10:05:00.489Z,98561.63
2019-01-17T10:07:34.844Z,98552.98
2019-01-17T10:10:15.825Z,98545.48
2019-01-17T10:12:50.525Z,98544.58
2019-01-17T10:16:03.283Z,98539.13
2019-01-17T10:19:05.527Z,98522.36
2019-01-17T10:22:33.282Z,98516.73
2019-01-17T10:25:57.256Z,98507.83
2019-01-17T10:29:10.557Z,98501.11
2019-01-17T10:32:25.953Z,98503.61
2019-01-17T10:35:55.675Z,98508.45
2019-01-17T10:38:47.434Z,98503.39
2019-01-17T10:41:58.742Z,98506.77
2019-01-17T10:45:12.729Z,98502.76
2019-01-17T10:48:41.588Z,98507.27
2019-01-17T10:52:26.087Z,98503.94
2019-01-17T10:56:02.960Z,98517.08
2019-01-17T10:59:16.391Z,98533.65
2019-01-17T11:02:33.453Z,98547.23
2019-01-17T11:05:49.947Z,98543.75
2019-01-17T11:09:29.032Z,98546.77
2019-01-17T11:12:26.321Z,98536.27
2019-01-17T11:16:06.604Z,98544.75
2019-01-17T11:19:08.071Z,98535.36
2019-01-17T11:22:21.468Z,98538.06
2019-01-17T11:25:35.530Z,98536.63
2019-01-17T11:29:03.127Z,98539.44
2019-01-17T11:32:15.725Z,98532.20
2019-01-17T11:35:23.046Z,98535.27
2019-01-17T11:38:33.789Z,98529.91
2019-01-17T11:42:23.371Z,98535.86
2019-01-17T11:45:42.395Z,98533.11
2019-01-17T11:49:00.071Z,98538.37
2019-01-17T11:52:44.100Z,98533.47
2019-01-17T11:55:44.114Z,98543.97
2019-01-17T11:59:12.710Z,98549.72
2019-01-17T12:02:24.240Z,98549.52
2019-01-17T12:04:57.315Z,98550.42
2019-01-17T12:07:30.971Z,98548.08
2019-01-17T12:10:09.524Z,98546.27
2019-01-17T12:12:44.825Z,98543.20
2019-01-17T12:15:19.012Z,98548.26
2019-01-17T12:17:52.507Z,98557.11
2019-01-17T12:20:26.786Z,98559.73
2019-01-17T12:22:59.812Z,98563.50
2019-01-17T12:25:33.978Z,98567.16
2019-01-17T12:28:11.501Z,98585.70
2019-01-17T12:30:48.790Z,98576.41
2019-01-17T12:33:24.551Z,98590.69
2019-01-17T12:36:00.321Z,98592.33
2019-01-17T12:38:33.501Z,98597.62
2019-01-17T12:41:08.644Z,98595.51
2019-01-17T12:43:43.932Z,98597.05
2019-01-17T12:46:18.513Z,98604.23
2019-01-17T12:48:51.445Z,98598.27
2019-01-17T12:51:27.085Z,98603.63
2019-01-17T12:54:01.144Z,98607.92
2019-01-17T12:56:36.434Z,98619.33
2019-01-17T12:59:09.914Z,98627.49
2019-01-17T13:01:44.108Z,98619.13
2019-01-17T13:04:17.470Z,98632.38
2019-01-17T13:06:56.825Z,98633.98
2019-01-17T13:09:37.448Z,98634.06
2019-01-17T13:12:11.909Z,98638.00
2019-01-17T13:14:44.911Z,98641.95
2019-01-17T13:17:19.058Z,98634.55
2019-01-17T13:19:54.475Z,98646.31
2019-01-17T13:22:27.705Z,98646.17
2019-01-17T13:25:00.989Z,98647.98
2019-01-17T13:27:36.552Z,98642.66
2019-01-17T13:30:17.555Z,98657.45
2019-01-17T13:32:50.823Z,98656.39
2019-01-17T13:35:25.214Z,98656.02
2019-01-17T13:37:58.953Z,98660.62
2019-01-17T13:40:31.956Z,98677.27
2019-01-17T13:43:06.571Z,98668.38
2019-01-17T13:45:39.585Z,98674.70
2019-01-17T13:48:12.745Z,98681.52
2019-01-17T13:50:48.643Z,98693.45
2019-01-17T13:53:22.761Z,98707.20
2019-01-17T13:55:56.659Z,98711.38
2019-01-17T13:58:34.579Z,98704.47
2019-01-17T14:01:08.703Z,98717.34
2019-01-17T14:03:43.231Z,98722.16
2019-01-17T14:06:19.159Z,98729.64
2019-01-17T14:08:52.592Z,98725.77
2019-01-17T14:11:29.195Z,98729.08
2019-01-17T14:14:03.762Z,98728.59
2019-01-17T14:16:39.164Z,98751.11
2019-01-17T14:19:22.879Z,98755.16
2019-01-17T14:21:57.637Z,98757.77
2019-01-17T14:24:45.298Z,98778.58
2019-01-17T14:27:25.320Z,98776.52
2019-01-17T14:29:58.993Z,98786.99
2019-01-17T14:32:32.177Z,98794.66
2019-01-17T14:35:06.645Z,98791.55
2019-01-17T14:37:40.301Z,98804.70
2019-01-17T14:40:14.525Z,98797.48
2019-01-17T14:42:48.261Z,98809.58
2019-01-17T14:45:23.501Z,98805.45
2019-01-17T14:47:59.410Z,98819.13
2019-01-17T14:50:34.481Z,98826.28
2019-01-17T14:53:07.704Z,98836.27
2019-01-17T14:55:43.345Z,98829.20
2019-01-17T14:58:18.387Z,98840.49
2019-01-17T15:00:53.273Z,98839.22
2019-01-17T15:03:28.112Z,98845.47
2019-01-17T15:06:06.641Z,98854.07
2019-01-17T15:08:42.313Z,98854.63
2019-01-17T15:11:17.497Z,98852.87
2019-01-17T15:13:54.226Z,98855.61
2019-01-17T15:16:31.277Z,98864.81
2019-01-17T15:19:08.525Z,98863.22
2019-01-17T15:21:41.621Z,98890.71
2019-01-17T15:24:15.543Z,98923.76
2019-01-17T15:26:50.132Z,98892.44
2019-01-17T15:29:25.020Z,98905.82
2019-01-17T15:32:02.446Z,98914.06
2019-01-17T15:34:36.408Z,98918.52
2019-01-17T15:37:10.493Z,98923.81
2019-01-17T15:39:44.035Z,98925.53
2019-01-17T15:42:17.629Z,98935.20
2019-01-17T15:44:55.061Z,98937.98
2019-01-17T15:47:32.560Z,98938.62
2019-01-17T15:50:11.478Z,98953.66
2019-01-17T15:52:45.414Z,98954.82
2019-01-17T15:55:20.748Z,98959.52
2019-01-17T15:57:54.765Z,98967.95
2019-01-17T16:00:35.465Z,98959.77
2019-01-17T16:03:13.741Z,98970.58
2019-01-17T16:05:51.266Z,98967.38
2019-01-17T16:08:25.235Z,98981.30
2019-01-17T16:11:00.014Z,98973.73
2019-01-17T16:13:34.271Z,98972.70
2019-01-17T16:16:11.396Z,98974.61
2019-01-17T16:18:48.545Z,98984.42
2019-01-17T16:21:25.915Z,98989.20
2019-01-17T16:24:00.693Z,99000.55
2019-01-17T16:26:35.825Z,99010.07
2019-01-17T16:29:12.766Z,99006.98
2019-01-17T16:31:47.773Z,99009.53
2019-01-17T16:34:22.779Z,99022.27
2019-01-17T16:37:04.923Z,99024.87
2019-01-17T16:39:40.710Z,99020.25
2019-01-17T16:42:14.953Z,99027.39
2019-01-17T16:44:48.205Z,99036.94
2019-01-17T16:47:22.180Z,99032.94
2019-01-17T16:49:56.236Z,99038.77
2019-01-17T16:52:29.989Z,99040.76
2019-01-17T16:55:05.957Z,99040.29
2019-01-17T16:57:49.124Z,99047.97
2019-01-17T17:00:41.851Z,99041.58
2019-01-17T17:03:15.713Z,99047.27
2019-01-17T17:05:51.712Z,99050.49
2019-01-17T17:08:26.674Z,99057.03
2019-01-17T17:11:00.078Z,99055.30
2019-01-17T17:13:33.803Z,99059.28
2019-01-17T17:16:10.919Z,99068.81
2019-01-17T17:18:45.300Z,99073.39
2019-01-17T17:21:21.042Z,99074.62
2019-01-17T17:23:54.663Z,99082.72
2019-01-17T17:26:28.930Z,99082.25
2019-01-17T17:29:05.805Z,99085.03
2019-01-17T17:31:43.944Z,99086.63
2019-01-17T17:34:18.953Z,99088.77
2019-01-17T17:36:53.253Z,99099.41
2019-01-17T17:39:27.939Z,99118.75
2019-01-17T17:42:10.813Z,99101.53
2019-01-17T17:44:47.204Z,99116.20
2019-01-17T17:47:20.633Z,99125.16
2019-01-17T17:49:56.406Z,99129.84
2019-01-17T17:52:31.397Z,99131.36
2019-01-17T17:55:12.391Z,99130.09
2019-01-17T17:57:46.990Z,99135.05
2019-01-17T18:00:40.689Z,99132.09
2019-01-17T18:03:17.646Z,99139.19
2019-01-17T18:05:51.109Z,99145.97
2019-01-17T18:08:26.552Z,99148.62
2019-01-17T18:11:02.159Z,99159.27
2019-01-17T18:13:36.319Z,99160.63
2019-01-17T18:16:10.055Z,99160.89
2019-01-17T18:18:43.546Z,99176.91
2019-01-17T18:21:20.733Z,99173.91
2019-01-17T18:23:54.968Z,99180.48
2019-01-17T18:26:29.964Z,99179.37
2019-01-17T18:29:10.001Z,99176.77
2019-01-17T18:31:43.714Z,99187.73
2019-01-17T18:34:19.191Z,99193.70
2019-01-17T18:36:56.446Z,99201.71
2019-01-17T18:39:29.922Z,99201.17
2019-01-17T18:42:05.573Z,99206.48
2019-01-17T18:44:39.242Z,99212.23
2019-01-17T18:47:15.782Z,99219.94
2019-01-17T18:49:52.812Z,99222.23
2019-01-17T18:52:32.484Z,99223.85
2019-01-17T18:55:08.102Z,99229.47
2019-01-17T18:57:42.893Z,99235.81
2019-01-17T19:00:24.518Z,99239.95
2019-01-17T19:03:01.325Z,99237.86
2019-01-17T19:05:39.881Z,99245.76
2019-01-17T19:08:15.980Z,99253.00
2019-01-17T19:10:50.177Z,99259.02
2019-01-17T19:13:25.207Z,99259.42
2019-01-17T19:15:58.263Z,99270.40
2019-01-17T19:18:32.142Z,99269.53
2019-01-17T19:21:08.860Z,99276.22
2019-01-17T19:23:45.274Z,99287.66
2019-01-17T19:26:22.074Z,99290.62
2019-01-17T19:28:55.824Z,99297.71
2019-01-17T19:31:31.561Z,99305.09
2019-01-17T19:34:09.830Z,99304.89
2019-01-17T19:36:44.082Z,99302.89
2019-01-17T19:39:21.080Z,99308.81
2019-01-17T19:41:54.951Z,99315.36
2019-01-17T19:44:31.403Z,99328.77
2019-01-17T19:47:11.367Z,99338.22
2019-01-17T19:49:51.398Z,99347.23
2019-01-17T19:52:27.718Z,99370.73
2019-01-17T19:55:03.180Z,99363.83
2019-01-17T19:57:40.527Z,99366.44
2019-01-17T20:00:22.763Z,99378.89
2019-01-17T20:02:56.425Z,99382.63
2019-01-17T20:05:32.078Z,99386.52
2019-01-17T20:08:07.892Z,99390.23
2019-01-17T20:10:43.586Z,99396.81
2019-01-17T20:13:18.306Z,99401.20
2019-01-17T20:16:10.825Z,99412.44
2019-01-17T20:18:45.961Z,99410.98
2019-01-17T20:21:21.738Z,99416.80
2019-01-17T20:23:58.095Z,99423.30
2019-01-17T20:26:32.840Z,99425.81
2019-01-17T20:29:10.766Z,99432.80
2019-01-17T20:31:52.582Z,99442.44
2019-01-17T20:34:28.621Z,99448.99
2019-01-17T20:37:05.574Z,99459.05
2019-01-17T20:39:44.599Z,99458.77
2019-01-17T20:42:20.131Z,99473.75
2019-01-17T20:45:10.204Z,99470.23
2019-01-17T20:47:46.120Z,99474.95
2019-01-17T20:50:25.749Z,99472.88
2019-01-17T20:53:00.325Z,99482.52
2019-01-17T20:55:34.616Z,99485.64
2019-01-17T20:58:08.948Z,99495.19
2019-01-17T21:01:04.421Z,99490.84
2019-01-17T21:03:39.431Z,99494.95
2019-01-17T21:06:20.991Z,99495.84
2019-01-17T21:08:54.996Z,99498.95
2019-01-17T21:11:37.311Z,99508.48
2019-01-17T21:14:13.120Z,99508.18
2019-01-17T21:16:46.620Z,99520.03
2019-01-17T21:19:22.090Z,99521.89
2019-01-17T21:21:59.804Z,99523.39
2019-01-17T21:24:36.200Z,99529.06
2019-01-17T21:27:15.360Z,99540.16
2019-01-17T21:29:52.183Z,99540.34
2019-01-17T21:32:26.766Z,99550.22
2019-01-17T21:35:02.170Z,99555.14
2019-01-17T21:37:36.371Z,99562.73
2019-01-17T21:40:17.651Z,99558.60
2019-01-17T21:42:51.773Z,99557.83
2019-01-17T21:45:25.802Z,99567.97
2019-01-17T21:48:00.393Z,99575.53
2019-01-17T21:50:34.224Z,99576.58
2019-01-17T21:53:09.846Z,99584.59
2019-01-17T21:55:48.032Z,99589.56
2019-01-17T21:58:25.825Z,99588.69
2019-01-17T22:00:59.872Z,99593.92
2019-01-17T22:03:34.536Z,99598.31
2019-01-17T22:06:08.140Z,99602.91
2019-01-17T22:08:43.754Z,99610.91
2019-01-17T22:11:20.241Z,99620.53
2019-01-17T22:13:55.089Z,99614.98
2019-01-17T22:16:31.075Z,99618.61
2019-01-17T22:19:08.185Z,99626.56
2019-01-17T22:21:42.053Z,99622.25
2019-01-17T22:24:18.544Z,99628.88
2019-01-17T22:26:52.540Z,99627.90
2019-01-17T22:29:27.492Z,99625.77
2019-01-17T22:32:00.881Z,99622.60
2019-01-17T22:34:39.336Z,99630.24
2019-01-17T22:37:12.364Z,99639.28
2019-01-17T22:39:47.743Z,99635.85
2019-01-17T22:42:22.344Z,99644.83
2019-01-17T22:44:56.261Z,99647.83
2019-01-17T22:47:29.856Z,99639.57
2019-01-17T22:50:03.156Z,99647.27
2019-01-17T22:52:36.230Z,99652.13
2019-01-17T22:55:09.907Z,99657.22
2019-01-17T22:57:43.084Z,99657.63
2019-01-17T23:00:48.263Z,99653.53
2019-01-17T23:03:36.336Z,99673.29
2019-01-17T23:06:09.273Z,99665.98
2019-01-17T23:08:42.647Z,99665.53
2019-01-17T23:11:15.911Z,99669.64
2019-01-17T23:13:52.283Z,99669.39
2019-01-17T23:16:26.533Z,99676.75
2019-01-17T23:19:01.304Z,99676.77
2019-01-17T23:21:35.509Z,99674.21
2019-01-17T23:24:10.193Z,99681.25
2019-01-17T23:26:43.291Z,99682.92
2019-01-17T23:29:16.700Z,99682.95
2019-01-17T23:31:50.391Z,99691.01
2019-01-17T23:34:23.407Z,99695.23
2019-01-17T23:36:56.918Z,99698.88
2019-01-17T23:39:30.063Z,99704.83
2019-01-17T23:42:03.331Z,99707.34
2019-01-17T23:44:36.798Z,99705.77
2019-01-17T23:47:15.567Z,99709.39
2019-01-17T23:49:49.506Z,99712.95
2019-01-17T23:52:24.617Z,99717.04
2019-01-17T23:54:57.617Z,99717.59
2019-01-17T23:57:30.950Z,99717.52
